Drayton Plns, Michigan
Current Conditions -  °F | °C
As of 6:53 PM on Sunday 23 Nov 2014 (Local Time) from KPTK Reporting Station
Light Rain Light Rain  
Wind Chill: 45°   Ceiling: 6000
Heat Index: 48°   Visibility: 10mi
Dew Point: 43°   Wind: 7mph
Humidity: 83%   Direction: 110°ESE
Pressure: 29.58"   Gusts: NA
Location:  42.6842°N, 83.3775°W
Report Text: KPTK 232353Z 11006KT 10SM -RA FEW040 BKN060 OVC080 09/06 A2958 RMK AO2 SLP020 P0001 60001 T00890061 10100 20083 58036
Loading
Personal Weather Stations






























Interactive Weather Map New forecast layout! Learn more

10-Day Weather Forecast

Advertisements
Track Severe Weather on mobile